createdAt,value
2022-10-03T00:02:19.229Z,148358.75
2022-10-03T00:07:41.349Z,148365.22
2022-10-03T00:13:01.828Z,148348.47
2022-10-03T00:18:15.506Z,148317.66
2022-10-03T00:23:27.749Z,148360.03
2022-10-03T00:28:52.165Z,148353.66
2022-10-03T00:34:08.449Z,148380.63
2022-10-03T00:39:47.625Z,148354.94
2022-10-03T00:45:24.872Z,148352.38
2022-10-03T00:50:43.657Z,148390.94
2022-10-03T00:56:02.071Z,148396.09
2022-10-03T01:01:23.247Z,148380.63
2022-10-03T01:06:37.786Z,148425.69
2022-10-03T01:11:54.186Z,148407.66
2022-10-03T01:17:09.895Z,148384.53
2022-10-03T01:22:36.448Z,148393.53
2022-10-03T01:28:02.204Z,148352.38
2022-10-03T01:33:11.393Z,148362.66
2022-10-03T01:38:22.571Z,148380.63
2022-10-03T01:43:35.842Z,148352.38
2022-10-03T01:48:48.977Z,148388.38
2022-10-03T01:54:07.363Z,148369.06
2022-10-03T01:59:18.216Z,148393.53
2022-10-03T02:04:37.746Z,148357.47
2022-10-03T02:09:52.674Z,148398.66
2022-10-03T02:15:01.496Z,148370.34
2022-10-03T02:20:14.494Z,148370.34
2022-10-03T02:25:25.898Z,148393.53
2022-10-03T02:30:39.409Z,148390.94
2022-10-03T02:36:27.318Z,148334.34
2022-10-03T02:42:03.089Z,148378.06
2022-10-03T02:47:47.882Z,148362.66
2022-10-03T02:53:30.359Z,148387.09
2022-10-03T02:59:07.437Z,148415.41
2022-10-03T03:04:53.552Z,148403.84
2022-10-03T03:10:31.446Z,148407.66
2022-10-03T03:16:15.525Z,148411.50
2022-10-03T03:21:33.185Z,148403.84
2022-10-03T03:26:53.348Z,148421.81
2022-10-03T03:32:03.356Z,148405.13
2022-10-03T03:37:12.463Z,148439.84
2022-10-03T03:42:43.499Z,148425.69
2022-10-03T03:48:01.426Z,148448.84
2022-10-03T03:53:26.303Z,148414.06
2022-10-03T03:58:39.891Z,148414.06
2022-10-03T04:03:52.453Z,148448.84
2022-10-03T04:09:20.274Z,148419.25
2022-10-03T04:14:50.192Z,148406.38
2022-10-03T04:20:09.962Z,148430.81
2022-10-03T04:25:32.046Z,148396.09
2022-10-03T04:30:53.349Z,148416.69
2022-10-03T04:36:38.142Z,148372.94
2022-10-03T04:41:47.518Z,148365.22
2022-10-03T04:46:56.213Z,148298.34
2022-10-03T04:52:03.831Z,148275.22
2022-10-03T04:57:18.722Z,148253.34
2022-10-03T05:02:36.494Z,148249.47
2022-10-03T05:07:46.824Z,148222.50
2022-10-03T05:12:58.272Z,148221.19
2022-10-03T05:18:12.128Z,148218.59
2022-10-03T05:23:31.418Z,148203.13
2022-10-03T05:28:42.502Z,148199.31
2022-10-03T05:33:55.823Z,148214.75
2022-10-03T05:39:27.350Z,148187.72
2022-10-03T05:44:42.001Z,148217.31
2022-10-03T05:50:11.023Z,148200.59
2022-10-03T05:55:37.642Z,148192.84
2022-10-03T06:01:01.805Z,148235.34
2022-10-03T06:06:20.864Z,148252.03
2022-10-03T06:12:00.177Z,148284.16
2022-10-03T06:17:27.181Z,148324.06
2022-10-03T06:22:50.699Z,148330.50
2022-10-03T06:28:45.005Z,148335.63
2022-10-03T06:34:24.155Z,148372.94
2022-10-03T06:40:10.556Z,148361.38
2022-10-03T06:45:47.173Z,148366.50
2022-10-03T06:50:55.545Z,148384.53
2022-10-03T06:56:40.734Z,148414.06
2022-10-03T07:02:15.198Z,148426.97
2022-10-03T07:07:49.959Z,148441.13
2022-10-03T07:13:13.209Z,148415.41
2022-10-03T07:18:41.261Z,148436.00
2022-10-03T07:24:06.163Z,148519.59
2022-10-03T07:29:19.311Z,148560.78
2022-10-03T07:34:51.407Z,148712.75
2022-10-03T07:40:14.030Z,148846.72
2022-10-03T07:45:35.838Z,148808.06
2022-10-03T07:50:52.291Z,148856.97
2022-10-03T07:56:09.953Z,148846.72
2022-10-03T08:01:57.448Z,148786.16
2022-10-03T08:07:19.060Z,148738.53
2022-10-03T08:12:59.106Z,148631.59
2022-10-03T08:18:37.690Z,148540.19
2022-10-03T08:24:38.159Z,148493.88
2022-10-03T08:30:15.310Z,148523.47
2022-10-03T08:35:56.290Z,148576.22
2022-10-03T08:41:32.984Z,148578.81
2022-10-03T08:47:02.495Z,148527.34
2022-10-03T08:52:21.545Z,148571.09
2022-10-03T08:57:52.022Z,148547.94
2022-10-03T09:03:38.093Z,148542.75
2022-10-03T09:09:13.189Z,148567.25
2022-10-03T09:14:50.838Z,148502.88
2022-10-03T09:20:17.469Z,148501.59
2022-10-03T09:25:40.565Z,148544.09
2022-10-03T09:30:54.103Z,148696.03
2022-10-03T09:36:12.687Z,148698.59
2022-10-03T09:41:48.233Z,148586.50
2022-10-03T09:47:28.488Z,148676.66
2022-10-03T09:52:51.906Z,148779.69
2022-10-03T09:58:34.179Z,148715.31
2022-10-03T10:04:53.217Z,148795.19
2022-10-03T10:10:17.527Z,148842.81
2022-10-03T10:15:57.611Z,148867.28
2022-10-03T10:21:51.599Z,148939.47
2022-10-03T10:27:28.508Z,148827.38
2022-10-03T10:33:10.018Z,148905.97
2022-10-03T10:38:26.579Z,148872.47
2022-10-03T10:44:07.925Z,148814.53
2022-10-03T10:49:45.917Z,148671.47
2022-10-03T10:55:16.667Z,148571.09
2022-10-03T11:00:26.406Z,148604.56
2022-10-03T11:06:09.057Z,148599.44
2022-10-03T11:11:48.224Z,148547.94
2022-10-03T11:17:33.031Z,148477.13
2022-10-03T11:23:13.553Z,148481.00
2022-10-03T11:29:01.470Z,148514.47
2022-10-03T11:34:45.005Z,148563.34
2022-10-03T11:39:52.846Z,148568.53
2022-10-03T11:45:01.069Z,148542.75
2022-10-03T11:50:41.073Z,148555.66
2022-10-03T11:55:51.837Z,148559.50
2022-10-03T12:01:02.985Z,148594.25
2022-10-03T12:06:34.128Z,148587.84
2022-10-03T12:11:43.632Z,148565.97
2022-10-03T12:17:02.778Z,148574.94
2022-10-03T12:22:20.566Z,148547.94
2022-10-03T12:27:39.601Z,148517.03
2022-10-03T12:32:52.523Z,148490.03
2022-10-03T12:38:08.641Z,148519.59
2022-10-03T12:43:34.835Z,148555.66
2022-10-03T12:48:48.564Z,148587.84
2022-10-03T12:54:06.905Z,148582.66
2022-10-03T12:59:34.380Z,148622.59
2022-10-03T13:04:45.072Z,148648.31
2022-10-03T13:10:02.471Z,148732.06
2022-10-03T13:15:44.585Z,148732.06
2022-10-03T13:21:00.049Z,148725.63
2022-10-03T13:26:17.328Z,148625.16
2022-10-03T13:31:26.038Z,148586.50
2022-10-03T13:36:37.492Z,148542.75
2022-10-03T13:42:00.759Z,148444.97
2022-10-03T13:47:17.919Z,148463.00
2022-10-03T13:52:29.939Z,148455.25
2022-10-03T13:57:40.420Z,148419.25
2022-10-03T14:03:11.536Z,148426.97
2022-10-03T14:08:28.733Z,148438.56
2022-10-03T14:13:44.533Z,148442.41
2022-10-03T14:19:02.603Z,148447.56
2022-10-03T14:24:17.216Z,148412.78
2022-10-03T14:29:30.044Z,148463.00
2022-10-03T14:34:48.089Z,148460.44
2022-10-03T14:40:05.175Z,148447.56
2022-10-03T14:45:14.779Z,148517.03
2022-10-03T14:50:22.112Z,148541.47
2022-10-03T14:55:30.339Z,148568.53
2022-10-03T15:00:43.067Z,148564.63
2022-10-03T15:06:00.127Z,148602.00
2022-10-03T15:11:06.464Z,148617.41
2022-10-03T15:16:17.989Z,148611.00
2022-10-03T15:21:22.436Z,148604.56
2022-10-03T15:26:35.910Z,148586.50
2022-10-03T15:31:48.692Z,148554.34
2022-10-03T15:36:57.315Z,148490.03
2022-10-03T15:42:08.039Z,148519.59
2022-10-03T15:47:16.438Z,148493.88
2022-10-03T15:52:23.326Z,148509.28
2022-10-03T15:57:30.648Z,148473.28
2022-10-03T16:02:38.203Z,148432.09
2022-10-03T16:07:50.474Z,148447.56
2022-10-03T16:13:00.770Z,148428.25
2022-10-03T16:18:11.847Z,148429.53
2022-10-03T16:23:22.535Z,148451.41
2022-10-03T16:28:32.598Z,148461.72
2022-10-03T16:33:40.286Z,148432.09
2022-10-03T16:38:47.444Z,148392.22
2022-10-03T16:43:57.115Z,148436.00
2022-10-03T16:49:27.799Z,148452.69
2022-10-03T16:54:33.564Z,148457.88
2022-10-03T16:59:39.985Z,148461.72
2022-10-03T17:04:50.811Z,148481.00
2022-10-03T17:09:56.942Z,148465.56
2022-10-03T17:15:05.675Z,148438.56
2022-10-03T17:20:17.377Z,148448.84
2022-10-03T17:25:42.121Z,148456.53
2022-10-03T17:30:51.210Z,148424.38
2022-10-03T17:36:16.713Z,148423.09
2022-10-03T17:41:23.899Z,148392.22
2022-10-03T17:46:36.152Z,148403.84
2022-10-03T17:51:43.661Z,148412.78
2022-10-03T17:56:53.501Z,148444.97
2022-10-03T18:02:00.388Z,148464.28
2022-10-03T18:07:10.394Z,148475.84
2022-10-03T18:12:27.061Z,148493.88
2022-10-03T18:17:49.729Z,148506.75
2022-10-03T18:23:00.904Z,148473.28
2022-10-03T18:28:16.018Z,148481.00
2022-10-03T18:33:25.343Z,148492.59
2022-10-03T18:38:36.303Z,148511.91
2022-10-03T18:43:45.506Z,148479.72
2022-10-03T18:49:28.298Z,148468.09
2022-10-03T18:54:31.143Z,148432.09
2022-10-03T18:59:43.106Z,148432.09
2022-10-03T19:04:52.081Z,148380.63
2022-10-03T19:10:21.906Z,148309.91
2022-10-03T19:15:33.320Z,148239.19
2022-10-03T19:20:40.994Z,148228.88
2022-10-03T19:25:50.880Z,148294.47
2022-10-03T19:30:59.976Z,148330.50
2022-10-03T19:36:08.098Z,148365.22
2022-10-03T19:41:24.952Z,148357.47
2022-10-03T19:47:03.556Z,148360.03
2022-10-03T19:52:18.612Z,148354.94
2022-10-03T19:57:28.229Z,148297.06
2022-10-03T20:02:32.109Z,148250.75
2022-10-03T20:07:45.342Z,148249.47
2022-10-03T20:12:53.312Z,148253.34
2022-10-03T20:18:01.955Z,148245.63
2022-10-03T20:23:08.324Z,148267.47
2022-10-03T20:28:20.997Z,148261.03
2022-10-03T20:33:28.035Z,148293.19
2022-10-03T20:38:49.435Z,148267.47
2022-10-03T20:44:02.249Z,148302.19
2022-10-03T20:49:26.226Z,148272.59
2022-10-03T20:54:36.484Z,148293.19
2022-10-03T20:59:46.358Z,148304.75
2022-10-03T21:04:55.464Z,148300.91
2022-10-03T21:10:09.507Z,148313.75
2022-10-03T21:15:29.852Z,148277.78
2022-10-03T21:20:39.012Z,148282.88
2022-10-03T21:25:44.628Z,148286.78
2022-10-03T21:31:02.993Z,148257.19
2022-10-03T21:36:13.732Z,148262.31
2022-10-03T21:41:39.119Z,148273.88
2022-10-03T21:46:52.590Z,148285.50
2022-10-03T21:52:15.030Z,148281.59
2022-10-03T21:57:27.402Z,148268.75
2022-10-03T22:02:39.156Z,148267.47
2022-10-03T22:07:44.428Z,148234.06
2022-10-03T22:12:50.791Z,148243.06
2022-10-03T22:18:01.260Z,148268.75
2022-10-03T22:23:23.985Z,148275.22
2022-10-03T22:28:40.422Z,148258.47
2022-10-03T22:33:57.073Z,148249.47
2022-10-03T22:39:00.386Z,148244.34
2022-10-03T22:44:09.306Z,148237.91
2022-10-03T22:49:21.165Z,148219.88
2022-10-03T22:54:31.451Z,148231.50
2022-10-03T22:59:40.898Z,148187.72
2022-10-03T23:04:50.830Z,148190.28
2022-10-03T23:10:04.761Z,148128.59
2022-10-03T23:15:13.288Z,148070.75
2022-10-03T23:20:28.727Z,147992.34
2022-10-03T23:25:41.506Z,147890.91
2022-10-03T23:30:50.751Z,147812.56
2022-10-03T23:35:56.133Z,147703.47
2022-10-03T23:41:03.191Z,147697.03
2022-10-03T23:46:11.442Z,147564.81
2022-10-03T23:51:21.496Z,147327.59
2022-10-03T23:56:31.649Z,146943.25
